KARA/ARA METAR and TAF weather

Enter ICAO airport designator
Station Type Date Time Source
KARA METAR 2019/10/21 22:53 UTC NOAA

KARA 212253Z 00000KT 10SM SCT012 22/22 A2981 RMK AO2 SLP094 T02220222


Station Type Date Time Source
KARA Decoded METAR 2019/10/21 22:53 UTC NOAA

NEW IBERIA ACADIANA REGIONAL, LA, United States (KARA) 30-02N 091-53W 18M
Oct 21, 2019 - 06:53 PM EDT / 2019.10.21 2253 UTC
Wind: Calm:0
Visibility: 10 mile(s):0
Sky conditions: partly cloudy
Temperature: 72.0 F (22.2 C)
Dew Point: 72.0 F (22.2 C)
Relative Humidity: 100%
Pressure (altimeter): 29.81 in. Hg (1009 hPa)
ob: KARA 212253Z 00000KT 10SM SCT012 22/22 A2981 RMK AO2 SLP094 T02220222
cycle: 23

Station Type Date Time Source
KARA TAF 2019/10/21 23:48 UTC NOAA

TAF KARA 212244Z 2123/2218 32005KT P6SM BKN012 BKN150
FM220300 35008KT P6SM BKN200
FM221400 03010KT P6SM SKC

Example: see airport list